Time;durP1;ratioP1;P1;durP2;ratioP2;P2;SDS_P1;SDS_P2;PMS_P1;PMS_P2;Temp;Humidity;BMP_temperature;BMP_pressure;BME280_temperature;BME280_humidity;BME280_pressure;Samples;Min_cycle;Max_cycle;Signal;HPM_P1;HPM_P2
2021/10/13 00:02:15;;;;;;;4.83;2.87;;;;;;;;;;747612;184;919429;-60
2021/10/13 00:04:41;;;;;;;3.13;1.97;;;;;;;;;;739700;189;918171;-60
2021/10/13 00:07:06;;;;;;;3.10;2.27;;;;;;;;;;763410;182;920803;-60
2021/10/13 00:09:32;;;;;;;3.93;2.60;;;;;;;;;;762136;182;917597;-60
2021/10/13 00:11:58;;;;;;;3.37;2.13;;;;;;;;;;766423;182;1120297;-61
2021/10/13 00:14:24;;;;;;;4.73;2.47;;;;;;;;;;760255;180;916627;-60
2021/10/13 00:16:55;;;;;;;7.62;3.50;;;;;;;;;;764598;181;916291;-61
2021/10/13 00:19:18;;;;;;;4.23;2.50;;;;;;;;;;770912;181;918784;-61
2021/10/13 00:21:44;;;;;;;4.20;2.30;;;;;;;;;;767874;180;919211;-61
2021/10/13 00:24:10;;;;;;;3.20;1.97;;;;;;;;;;762724;181;919518;-61
2021/10/13 00:26:36;;;;;;;3.63;1.90;;;;;;;;;;767789;180;919281;-62
2021/10/13 00:29:01;;;;;;;4.03;2.70;;;;;;;;;;767528;182;919219;-61
2021/10/13 00:31:27;;;;;;;3.70;2.37;;;;;;;;;;758316;181;918701;-60
2021/10/13 00:33:53;;;;;;;6.23;2.80;;;;;;;;;;764559;182;919764;-61
2021/10/13 00:36:19;;;;;;;3.30;2.53;;;;;;;;;;769552;182;919383;-62
2021/10/13 00:38:45;;;;;;;3.53;2.30;;;;;;;;;;764651;182;919222;-61
2021/10/13 00:41:11;;;;;;;4.43;2.55;;;;;;;;;;764816;182;918390;-61
2021/10/13 00:43:36;;;;;;;3.40;2.13;;;;;;;;;;771920;182;918466;-63
2021/10/13 00:46:02;;;;;;;6.03;2.83;;;;;;;;;;765842;181;920176;-63
2021/10/13 00:48:28;;;;;;;4.70;2.50;;;;;;;;;;763287;182;918619;-62
2021/10/13 00:50:54;;;;;;;3.20;2.20;;;;;;;;;;768648;181;918982;-61
2021/10/13 00:53:20;;;;;;;3.20;2.10;;;;;;;;;;747307;184;1039407;-61
2021/10/13 00:55:46;;;;;;;2.90;2.10;;;;;;;;;;756530;182;1022378;-62
2021/10/13 00:58:12;;;;;;;5.47;2.50;;;;;;;;;;767244;181;919567;-62
2021/10/13 01:00:38;;;;;;;3.00;1.73;;;;;;;;;;769017;182;1021983;-62
2021/10/13 01:03:20;;;;;;;5.05;1.95;;;;;;;;;;767327;180;919066;-61
2021/10/13 01:05:47;;;;;;;4.00;2.00;;;;;;;;;;765132;181;919432;-62
2021/10/13 01:08:25;;;;;;;39.37;4.10;;;;;;;;;;763370;181;918201;-63
2021/10/13 01:10:53;;;;;;;10.53;2.30;;;;;;;;;;769173;180;918313;-62
2021/10/13 01:13:25;;;;;;;6.30;1.73;;;;;;;;;;772238;181;938715;-63
2021/10/13 01:16:06;;;;;;;27.80;3.63;;;;;;;;;;763760;182;921405;-63
2021/10/13 01:18:33;;;;;;;9.10;2.20;;;;;;;;;;765219;182;918955;-62
2021/10/13 01:20:58;;;;;;;4.30;2.40;;;;;;;;;;769730;180;920243;-62
2021/10/13 01:23:42;;;;;;;10.73;3.30;;;;;;;;;;766715;181;919196;-62
2021/10/13 01:26:23;;;;;;;3.60;2.07;;;;;;;;;;749749;183;921292;-62
2021/10/13 01:28:49;;;;;;;6.53;3.00;;;;;;;;;;764623;181;999762;-62
2021/10/13 01:31:16;;;;;;;6.67;2.80;;;;;;;;;;767275;182;918660;-61
2021/10/13 01:33:43;;;;;;;4.17;2.40;;;;;;;;;;764451;182;918681;-62
2021/10/13 01:36:11;;;;;;;3.37;2.20;;;;;;;;;;765766;181;918803;-64
2021/10/13 01:38:35;;;;;;;6.80;2.60;;;;;;;;;;770588;180;918959;-62
2021/10/13 01:41:02;;;;;;;5.13;2.27;;;;;;;;;;765857;182;1022273;-62
2021/10/13 01:43:27;;;;;;;5.18;2.37;;;;;;;;;;761222;182;932304;-62
2021/10/13 01:45:53;;;;;;;8.57;3.97;;;;;;;;;;768161;179;918911;-63
2021/10/13 01:48:19;;;;;;;7.07;3.20;;;;;;;;;;761278;182;919603;-63
2021/10/13 01:50:46;;;;;;;5.30;2.60;;;;;;;;;;763952;183;919572;-63
2021/10/13 01:53:11;;;;;;;4.40;2.67;;;;;;;;;;764110;183;918210;-62
2021/10/13 01:55:36;;;;;;;6.87;2.57;;;;;;;;;;769672;180;919121;-62
2021/10/13 01:58:02;;;;;;;42.03;13.63;;;;;;;;;;765562;182;919875;-63
2021/10/13 02:00:28;;;;;;;43.77;14.60;;;;;;;;;;755505;183;920117;-62
2021/10/13 02:02:54;;;;;;;62.23;13.60;;;;;;;;;;769659;182;918875;-62
2021/10/13 02:05:20;;;;;;;54.00;14.10;;;;;;;;;;762052;182;919084;-62
2021/10/13 02:07:46;;;;;;;56.50;13.43;;;;;;;;;;763348;182;941370;-64
2021/10/13 02:10:11;;;;;;;34.03;8.93;;;;;;;;;;768525;182;918714;-66
2021/10/13 02:12:37;;;;;;;24.80;9.43;;;;;;;;;;764299;183;918964;-65
2021/10/13 02:15:04;;;;;;;35.83;10.33;;;;;;;;;;765676;179;919433;-65
2021/10/13 02:17:29;;;;;;;26.53;7.77;;;;;;;;;;760365;181;919611;-65
2021/10/13 02:19:55;;;;;;;16.63;8.07;;;;;;;;;;775427;180;918692;-66
2021/10/13 02:22:21;;;;;;;25.00;8.80;;;;;;;;;;765972;181;919636;-66
2021/10/13 02:24:47;;;;;;;21.63;7.60;;;;;;;;;;763754;182;918930;-66
2021/10/13 02:27:14;;;;;;;21.97;8.50;;;;;;;;;;770988;181;918452;-67
2021/10/13 02:29:39;;;;;;;12.30;5.93;;;;;;;;;;765168;181;919931;-67
2021/10/13 02:32:06;;;;;;;18.50;7.70;;;;;;;;;;762968;181;918897;-67
2021/10/13 02:34:32;;;;;;;14.17;6.00;;;;;;;;;;767634;182;918101;-67
2021/10/13 02:36:58;;;;;;;16.70;6.93;;;;;;;;;;763546;182;918637;-68
2021/10/13 02:39:24;;;;;;;16.73;7.37;;;;;;;;;;763304;182;918701;-67
2021/10/13 02:41:50;;;;;;;14.53;5.80;;;;;;;;;;764103;182;919446;-67
2021/10/13 02:44:15;;;;;;;10.17;5.30;;;;;;;;;;763233;182;1532789;-67
2021/10/13 02:46:54;;;;;;;16.03;6.63;;;;;;;;;;763876;182;918353;-68
2021/10/13 02:49:20;;;;;;;14.90;5.70;;;;;;;;;;745385;186;919742;-68
2021/10/13 02:51:46;;;;;;;11.70;5.37;;;;;;;;;;747383;186;917801;-67
2021/10/13 02:54:13;;;;;;;9.57;5.67;;;;;;;;;;754033;186;915407;-68
2021/10/13 02:56:39;;;;;;;13.77;5.53;;;;;;;;;;763510;180;918995;-68
2021/10/13 02:59:06;;;;;;;9.40;4.77;;;;;;;;;;760391;180;919047;-69
2021/10/13 03:01:34;;;;;;;12.30;5.23;;;;;;;;;;770968;179;918411;-67
2021/10/13 03:04:00;;;;;;;22.03;8.63;;;;;;;;;;765389;182;919108;-68
2021/10/13 03:06:26;;;;;;;18.33;8.40;;;;;;;;;;765032;182;918510;-67
2021/10/13 03:08:51;;;;;;;23.47;9.83;;;;;;;;;;757547;180;919021;-68
2021/10/13 03:11:17;;;;;;;12.70;7.00;;;;;;;;;;758561;182;1034747;-68
2021/10/13 03:13:43;;;;;;;28.10;10.07;;;;;;;;;;766154;182;924268;-69
2021/10/13 03:16:09;;;;;;;21.87;8.97;;;;;;;;;;763671;182;918557;-68
2021/10/13 03:18:35;;;;;;;24.00;10.37;;;;;;;;;;770811;181;918266;-68
2021/10/13 03:21:00;;;;;;;26.80;10.70;;;;;;;;;;756887;181;917737;-69
2021/10/13 03:23:27;;;;;;;24.70;9.30;;;;;;;;;;764191;180;917266;-69
2021/10/13 03:25:52;;;;;;;21.80;9.40;;;;;;;;;;772619;182;918303;-67
2021/10/13 03:28:18;;;;;;;25.43;8.30;;;;;;;;;;748058;184;916762;-69
2021/10/13 03:30:44;;;;;;;25.65;9.52;;;;;;;;;;767372;181;918830;-69
2021/10/13 03:33:10;;;;;;;19.10;9.03;;;;;;;;;;769509;181;919226;-69
2021/10/13 03:35:35;;;;;;;14.80;6.63;;;;;;;;;;762882;181;919205;-68
2021/10/13 03:38:01;;;;;;;18.20;8.70;;;;;;;;;;764483;180;919241;-67
2021/10/13 03:40:27;;;;;;;13.40;7.23;;;;;;;;;;766688;181;1021169;-68
2021/10/13 03:42:53;;;;;;;22.13;8.20;;;;;;;;;;770720;180;918187;-68
2021/10/13 03:45:19;;;;;;;21.73;7.40;;;;;;;;;;760753;180;920290;-68
2021/10/13 03:47:45;;;;;;;19.80;8.75;;;;;;;;;;766214;182;918494;-68
2021/10/13 03:50:10;;;;;;;22.33;10.10;;;;;;;;;;763470;182;1026708;-69
2021/10/13 03:52:36;;;;;;;35.77;13.17;;;;;;;;;;765372;182;918947;-67
2021/10/13 03:55:02;;;;;;;29.60;11.37;;;;;;;;;;760977;181;1020747;-68
2021/10/13 03:57:28;;;;;;;24.07;12.30;;;;;;;;;;771872;182;919050;-67
2021/10/13 03:59:54;;;;;;;31.97;16.90;;;;;;;;;;764983;180;918357;-69
2021/10/13 04:02:20;;;;;;;43.17;16.23;;;;;;;;;;765002;180;918655;-68
2021/10/13 04:04:46;;;;;;;34.67;16.13;;;;;;;;;;764194;180;918309;-68
2021/10/13 04:07:11;;;;;;;42.07;17.17;;;;;;;;;;759451;183;918892;-70
2021/10/13 04:09:37;;;;;;;37.23;14.73;;;;;;;;;;765314;182;919620;-68
2021/10/13 04:12:03;;;;;;;33.57;15.83;;;;;;;;;;766789;182;926949;-67
2021/10/13 04:14:29;;;;;;;41.20;14.17;;;;;;;;;;768469;182;918807;-68
2021/10/13 04:16:55;;;;;;;39.40;12.47;;;;;;;;;;759681;182;919435;-67
2021/10/13 04:19:21;;;;;;;38.53;15.87;;;;;;;;;;764112;180;920293;-68
2021/10/13 04:21:47;;;;;;;38.40;15.77;;;;;;;;;;770593;182;920125;-67
2021/10/13 04:24:13;;;;;;;28.93;13.40;;;;;;;;;;765398;181;919705;-67
2021/10/13 04:26:38;;;;;;;37.90;12.73;;;;;;;;;;768349;182;983330;-67
2021/10/13 04:29:05;;;;;;;30.12;13.75;;;;;;;;;;763178;182;920391;-67
2021/10/13 04:31:31;;;;;;;23.73;13.23;;;;;;;;;;767782;182;925315;-67
2021/10/13 04:33:57;;;;;;;31.70;12.47;;;;;;;;;;764568;182;918929;-67
2021/10/13 04:36:22;;;;;;;32.47;11.50;;;;;;;;;;745955;186;919197;-68
2021/10/13 04:38:48;;;;;;;35.23;12.20;;;;;;;;;;774129;180;918893;-68
2021/10/13 04:41:14;;;;;;;31.12;12.77;;;;;;;;;;766115;181;919367;-68
2021/10/13 04:43:40;;;;;;;30.90;12.10;;;;;;;;;;764829;180;918936;-69
2021/10/13 04:46:06;;;;;;;36.07;13.97;;;;;;;;;;778632;181;629467;-67
2021/10/13 04:48:32;;;;;;;37.83;14.60;;;;;;;;;;769919;181;627126;-68
2021/10/13 04:50:58;;;;;;;32.13;13.03;;;;;;;;;;766822;181;919247;-67
2021/10/13 04:53:24;;;;;;;25.27;13.30;;;;;;;;;;769817;181;921788;-68
2021/10/13 04:55:49;;;;;;;32.47;12.10;;;;;;;;;;767675;181;918153;-68
2021/10/13 04:58:15;;;;;;;24.03;10.30;;;;;;;;;;761574;182;917983;-68
2021/10/13 05:00:41;;;;;;;17.83;10.67;;;;;;;;;;761208;182;924933;-69
2021/10/13 05:03:07;;;;;;;26.80;11.87;;;;;;;;;;770933;182;917640;-67
2021/10/13 05:05:33;;;;;;;26.10;12.93;;;;;;;;;;761461;181;918472;-69
2021/10/13 05:07:59;;;;;;;27.75;11.65;;;;;;;;;;762926;181;918981;-66
2021/10/13 05:10:24;;;;;;;21.50;12.10;;;;;;;;;;771124;182;918383;-62
2021/10/13 05:12:50;;;;;;;12.40;7.33;;;;;;;;;;763877;182;920503;-61
2021/10/13 05:15:16;;;;;;;16.60;8.83;;;;;;;;;;762805;182;922676;-60
2021/10/13 05:17:42;;;;;;;16.50;8.70;;;;;;;;;;768787;182;919403;-59
2021/10/13 05:20:09;;;;;;;15.77;8.80;;;;;;;;;;755299;182;919645;-61
2021/10/13 05:22:34;;;;;;;15.10;8.33;;;;;;;;;;763120;183;916499;-60
2021/10/13 05:25:00;;;;;;;13.83;8.97;;;;;;;;;;765282;182;915784;-59
2021/10/13 05:27:26;;;;;;;13.77;8.17;;;;;;;;;;768518;182;916078;-61
2021/10/13 05:29:52;;;;;;;18.03;9.27;;;;;;;;;;765512;182;919644;-61
2021/10/13 05:32:18;;;;;;;10.40;7.47;;;;;;;;;;764017;182;919134;-60
2021/10/13 05:34:44;;;;;;;17.60;7.43;;;;;;;;;;768941;181;811496;-60
2021/10/13 05:37:09;;;;;;;20.63;10.20;;;;;;;;;;761525;181;920108;-64
2021/10/13 05:39:35;;;;;;;16.13;10.77;;;;;;;;;;764554;182;918607;-61
2021/10/13 05:42:01;;;;;;;18.70;9.50;;;;;;;;;;771748;181;832296;-60
2021/10/13 05:44:27;;;;;;;15.18;10.45;;;;;;;;;;759812;182;918698;-60
2021/10/13 05:46:53;;;;;;;15.10;9.50;;;;;;;;;;761618;183;919887;-60
2021/10/13 05:49:19;;;;;;;15.87;9.20;;;;;;;;;;766160;182;920044;-60
2021/10/13 05:51:45;;;;;;;13.10;9.63;;;;;;;;;;762771;181;919035;-61
2021/10/13 05:54:10;;;;;;;13.07;9.90;;;;;;;;;;766448;181;918176;-60
2021/10/13 05:56:37;;;;;;;17.97;9.37;;;;;;;;;;767277;181;919022;-61
2021/10/13 05:59:02;;;;;;;13.03;8.57;;;;;;;;;;773151;181;914033;-61
2021/10/13 06:01:28;;;;;;;13.63;8.60;;;;;;;;;;765397;180;920112;-61
2021/10/13 06:03:54;;;;;;;15.73;8.18;;;;;;;;;;764033;181;918703;-60
2021/10/13 06:06:20;;;;;;;14.67;7.97;;;;;;;;;;770877;181;918548;-60
2021/10/13 06:08:45;;;;;;;16.60;8.20;;;;;;;;;;760125;183;921199;-61
2021/10/13 06:11:12;;;;;;;17.67;10.00;;;;;;;;;;765548;182;919633;-61
2021/10/13 06:13:37;;;;;;;20.47;10.90;;;;;;;;;;769280;182;928708;-59
2021/10/13 06:16:03;;;;;;;15.60;11.17;;;;;;;;;;761942;182;919333;-60
2021/10/13 06:18:29;;;;;;;18.70;10.63;;;;;;;;;;765196;182;920523;-60
2021/10/13 06:20:55;;;;;;;14.20;8.93;;;;;;;;;;759056;182;919346;-60
2021/10/13 06:23:21;;;;;;;21.03;7.50;;;;;;;;;;767007;182;918094;-60
2021/10/13 06:25:46;;;;;;;6.13;4.20;;;;;;;;;;761312;181;920151;-61
2021/10/13 06:28:12;;;;;;;13.85;7.35;;;;;;;;;;765413;182;919465;-62
2021/10/13 06:30:38;;;;;;;10.87;6.97;;;;;;;;;;765876;180;919327;-61
2021/10/13 06:33:04;;;;;;;6.10;4.23;;;;;;;;;;766625;182;918747;-61
2021/10/13 06:35:30;;;;;;;5.63;3.57;;;;;;;;;;764906;182;1021570;-60
2021/10/13 06:37:56;;;;;;;4.57;3.23;;;;;;;;;;770569;182;919537;-60
2021/10/13 06:40:22;;;;;;;5.20;2.83;;;;;;;;;;754866;181;918887;-61
2021/10/13 06:42:47;;;;;;;3.10;2.40;;;;;;;;;;763504;182;923182;-60
2021/10/13 06:45:13;;;;;;;4.90;3.30;;;;;;;;;;765688;182;919276;-60
2021/10/13 06:47:39;;;;;;;10.30;6.03;;;;;;;;;;767496;180;930495;-60
2021/10/13 06:50:05;;;;;;;22.10;10.63;;;;;;;;;;763139;181;920269;-60
2021/10/13 06:52:31;;;;;;;19.30;10.90;;;;;;;;;;764456;180;919002;-60
2021/10/13 06:54:57;;;;;;;28.67;11.77;;;;;;;;;;762246;183;916289;-60
2021/10/13 06:57:23;;;;;;;15.63;9.37;;;;;;;;;;757328;183;914135;-60
2021/10/13 06:59:49;;;;;;;18.97;10.17;;;;;;;;;;763937;181;924176;-60
2021/10/13 07:02:14;;;;;;;15.40;9.30;;;;;;;;;;774373;179;919013;-61
2021/10/13 07:04:41;;;;;;;12.73;7.80;;;;;;;;;;766319;181;918934;-61
2021/10/13 07:07:06;;;;;;;14.30;8.20;;;;;;;;;;768146;181;918847;-60
2021/10/13 07:09:32;;;;;;;13.05;7.72;;;;;;;;;;770712;180;918767;-61
2021/10/13 07:11:58;;;;;;;10.03;7.03;;;;;;;;;;768314;180;918252;-61
2021/10/13 07:14:24;;;;;;;15.80;9.17;;;;;;;;;;765711;181;917916;-62
2021/10/13 07:16:50;;;;;;;19.02;9.45;;;;;;;;;;764525;180;920731;-61
2021/10/13 07:19:16;;;;;;;17.00;11.43;;;;;;;;;;771222;182;918746;-61
2021/10/13 07:21:42;;;;;;;18.40;11.30;;;;;;;;;;767084;182;918321;-61
2021/10/13 07:24:07;;;;;;;20.43;10.80;;;;;;;;;;764389;180;916644;-61
2021/10/13 07:26:35;;;;;;;16.47;10.03;;;;;;;;;;767679;182;918485;-61
2021/10/13 07:28:59;;;;;;;22.60;11.00;;;;;;;;;;766570;181;914997;-61
2021/10/13 07:31:27;;;;;;;14.70;8.80;;;;;;;;;;763659;182;916095;-61
2021/10/13 07:33:51;;;;;;;15.00;9.00;;;;;;;;;;766158;182;915439;-62
2021/10/13 07:36:17;;;;;;;14.80;8.50;;;;;;;;;;762035;182;919399;-62
2021/10/13 07:38:43;;;;;;;16.83;9.37;;;;;;;;;;764117;182;919771;-62
2021/10/13 07:41:08;;;;;;;18.67;10.77;;;;;;;;;;756921;182;919629;-62
2021/10/13 07:43:34;;;;;;;14.85;9.40;;;;;;;;;;766310;182;919469;-62
2021/10/13 07:46:00;;;;;;;12.00;8.30;;;;;;;;;;760941;182;918942;-62
2021/10/13 07:48:26;;;;;;;11.03;7.43;;;;;;;;;;765318;181;919864;-62
2021/10/13 07:50:52;;;;;;;16.13;8.07;;;;;;;;;;771388;182;920254;-62
2021/10/13 07:53:18;;;;;;;20.67;11.30;;;;;;;;;;764678;182;920113;-62
2021/10/13 07:55:43;;;;;;;17.90;10.90;;;;;;;;;;767143;182;918424;-62
2021/10/13 07:58:09;;;;;;;15.23;10.30;;;;;;;;;;768396;182;918975;-61
2021/10/13 08:00:35;;;;;;;16.63;10.00;;;;;;;;;;760002;182;918697;-62
2021/10/13 08:03:01;;;;;;;14.07;8.50;;;;;;;;;;764731;181;919263;-62
2021/10/13 08:05:27;;;;;;;16.33;8.50;;;;;;;;;;763191;182;919506;-62
2021/10/13 08:07:53;;;;;;;15.07;9.43;;;;;;;;;;762778;182;919861;-62
2021/10/13 08:10:19;;;;;;;17.30;9.47;;;;;;;;;;764541;182;919132;-63
2021/10/13 08:12:44;;;;;;;15.97;10.60;;;;;;;;;;767038;180;921101;-62
2021/10/13 08:15:10;;;;;;;14.57;9.53;;;;;;;;;;763436;182;921935;-62
2021/10/13 08:17:36;;;;;;;17.90;10.30;;;;;;;;;;763949;180;919956;-62
2021/10/13 08:20:03;;;;;;;16.83;10.93;;;;;;;;;;764834;181;919680;-63
2021/10/13 08:22:28;;;;;;;15.93;8.20;;;;;;;;;;767807;179;920729;-63
2021/10/13 08:24:54;;;;;;;11.30;7.90;;;;;;;;;;760519;180;918112;-62
2021/10/13 08:27:19;;;;;;;14.02;8.50;;;;;;;;;;765834;181;1021290;-63
2021/10/13 08:29:46;;;;;;;12.98;8.00;;;;;;;;;;768073;181;923383;-62
2021/10/13 08:32:12;;;;;;;15.03;9.30;;;;;;;;;;767549;182;918000;-63
2021/10/13 08:34:38;;;;;;;16.43;9.53;;;;;;;;;;764228;182;919831;-62
2021/10/13 08:37:06;;;;;;;13.37;10.00;;;;;;;;;;766059;182;919209;-62
2021/10/13 08:39:29;;;;;;;11.23;7.77;;;;;;;;;;766419;182;916526;-63
2021/10/13 08:41:55;;;;;;;13.13;8.25;;;;;;;;;;763105;181;1020627;-62
2021/10/13 08:44:21;;;;;;;12.20;6.90;;;;;;;;;;763921;182;918207;-62
2021/10/13 08:46:47;;;;;;;8.17;5.83;;;;;;;;;;770943;181;919838;-64
2021/10/13 08:49:13;;;;;;;5.37;3.60;;;;;;;;;;764173;182;918395;-63
2021/10/13 08:51:39;;;;;;;4.60;3.20;;;;;;;;;;762164;180;918463;-63
2021/10/13 08:54:04;;;;;;;3.70;2.33;;;;;;;;;;765765;182;1015809;-64
2021/10/13 08:56:30;;;;;;;5.63;2.37;;;;;;;;;;765093;181;919192;-63
2021/10/13 08:58:56;;;;;;;4.30;2.70;;;;;;;;;;762068;182;918925;-63
2021/10/13 09:01:22;;;;;;;4.63;2.50;;;;;;;;;;756394;181;926441;-63
2021/10/13 09:03:48;;;;;;;2.83;2.10;;;;;;;;;;768726;181;919418;-64
2021/10/13 09:06:18;;;;;;;3.80;2.30;;;;;;;;;;751964;183;919556;-64
2021/10/13 09:08:50;;;;;;;3.65;2.00;;;;;;;;;;755117;181;924952;-63
2021/10/13 09:11:16;;;;;;;4.57;2.40;;;;;;;;;;765509;183;918447;-63
2021/10/13 09:13:42;;;;;;;4.68;2.25;;;;;;;;;;767394;180;918471;-63
2021/10/13 09:16:07;;;;;;;12.00;7.20;;;;;;;;;;763207;182;919341;-63
2021/10/13 09:18:33;;;;;;;4.77;2.73;;;;;;;;;;761518;180;918773;-63
2021/10/13 09:21:00;;;;;;;3.83;2.13;;;;;;;;;;769999;181;919611;-62
2021/10/13 09:23:30;;;;;;;3.57;2.33;;;;;;;;;;763139;180;1020792;-62
2021/10/13 09:25:59;;;;;;;4.43;2.13;;;;;;;;;;763755;179;919892;-62
2021/10/13 09:28:25;;;;;;;3.57;1.70;;;;;;;;;;763514;182;918683;-63
2021/10/13 09:30:51;;;;;;;3.13;2.00;;;;;;;;;;770032;180;911292;-63
2021/10/13 09:33:17;;;;;;;4.50;1.77;;;;;;;;;;767621;181;918701;-63
2021/10/13 09:35:47;;;;;;;3.10;1.30;;;;;;;;;;757413;182;919005;-63
2021/10/13 09:38:13;;;;;;;3.50;1.80;;;;;;;;;;768936;181;1124192;-62
2021/10/13 09:40:38;;;;;;;4.10;2.20;;;;;;;;;;759940;182;919581;-62
2021/10/13 09:43:04;;;;;;;5.33;1.90;;;;;;;;;;769146;181;927664;-62
2021/10/13 09:45:30;;;;;;;5.53;1.63;;;;;;;;;;763725;182;919450;-61
2021/10/13 09:47:58;;;;;;;3.28;1.27;;;;;;;;;;765810;182;918458;-62
2021/10/13 09:50:23;;;;;;;2.20;1.30;;;;;;;;;;761882;181;929357;-62
2021/10/13 09:52:49;;;;;;;3.23;1.60;;;;;;;;;;768038;182;919433;-63
2021/10/13 09:55:15;;;;;;;3.03;1.73;;;;;;;;;;768681;182;918735;-62
2021/10/13 09:57:41;;;;;;;2.63;1.50;;;;;;;;;;763930;181;1328771;-63
2021/10/13 10:00:08;;;;;;;3.30;2.57;;;;;;;;;;766304;181;918766;-62
2021/10/13 10:02:34;;;;;;;7.27;3.90;;;;;;;;;;771366;179;919181;-63
2021/10/13 10:05:01;;;;;;;3.90;2.20;;;;;;;;;;762330;182;918520;-63
2021/10/13 10:07:26;;;;;;;2.67;1.40;;;;;;;;;;763145;180;918925;-63
2021/10/13 10:09:58;;;;;;;4.10;2.33;;;;;;;;;;767096;182;918896;-63
2021/10/13 10:12:24;;;;;;;3.55;1.90;;;;;;;;;;759549;183;918845;-63
2021/10/13 10:14:50;;;;;;;5.97;3.57;;;;;;;;;;761491;183;920540;-63
2021/10/13 10:17:16;;;;;;;2.10;1.20;;;;;;;;;;768313;182;918688;-63
2021/10/13 10:19:44;;;;;;;2.78;2.00;;;;;;;;;;762459;182;918515;-63
2021/10/13 10:22:13;;;;;;;2.27;1.57;;;;;;;;;;761077;180;1070031;-63
2021/10/13 10:24:40;;;;;;;2.80;1.97;;;;;;;;;;765252;182;919093;-63
2021/10/13 10:27:12;;;;;;;2.83;1.80;;;;;;;;;;762562;182;924250;-63
2021/10/13 10:29:38;;;;;;;3.00;2.00;;;;;;;;;;768395;181;919693;-64
2021/10/13 10:32:04;;;;;;;7.60;2.10;;;;;;;;;;765659;182;919912;-64
2021/10/13 10:34:30;;;;;;;2.50;1.40;;;;;;;;;;763806;182;919820;-64
2021/10/13 10:37:11;;;;;;;4.00;2.10;;;;;;;;;;767246;180;919062;-63
2021/10/13 10:39:57;;;;;;;3.87;2.50;;;;;;;;;;766354;181;919403;-63
2021/10/13 10:42:29;;;;;;;3.63;2.60;;;;;;;;;;757022;181;919887;-62
2021/10/13 10:44:55;;;;;;;4.20;2.90;;;;;;;;;;768645;181;919435;-66
2021/10/13 10:47:20;;;;;;;4.50;2.90;;;;;;;;;;757941;183;919148;-64
2021/10/13 10:50:01;;;;;;;3.70;2.57;;;;;;;;;;764818;180;920947;-64
2021/10/13 10:52:27;;;;;;;3.70;2.60;;;;;;;;;;763129;181;919638;-62
2021/10/13 10:55:01;;;;;;;8.03;3.27;;;;;;;;;;770806;182;919454;-62
2021/10/13 10:57:30;;;;;;;3.03;2.10;;;;;;;;;;772292;182;918527;-62
2021/10/13 10:59:56;;;;;;;3.57;2.33;;;;;;;;;;764946;182;937133;-63
2021/10/13 11:02:22;;;;;;;4.10;2.30;;;;;;;;;;765544;180;919717;-62
2021/10/13 11:05:04;;;;;;;2.50;1.50;;;;;;;;;;769590;182;920605;-63
2021/10/13 11:07:29;;;;;;;4.07;2.30;;;;;;;;;;766888;182;918976;-62
2021/10/13 11:09:59;;;;;;;11.00;8.00;;;;;;;;;;763864;182;918552;-62
2021/10/13 11:12:25;;;;;;;18.03;14.20;;;;;;;;;;765519;181;918617;-63
2021/10/13 11:14:51;;;;;;;3.57;2.30;;;;;;;;;;762426;181;1022086;-62
2021/10/13 11:17:16;;;;;;;2.77;2.07;;;;;;;;;;768299;182;928196;-63
2021/10/13 11:19:44;;;;;;;2.40;1.60;;;;;;;;;;762534;182;919777;-62
2021/10/13 11:22:08;;;;;;;3.83;2.10;;;;;;;;;;764578;180;1021141;-62
2021/10/13 11:24:34;;;;;;;4.00;2.17;;;;;;;;;;766803;182;914829;-63
2021/10/13 11:27:00;;;;;;;3.23;2.20;;;;;;;;;;767613;182;923385;-63
2021/10/13 11:29:26;;;;;;;5.00;2.23;;;;;;;;;;768072;182;920264;-63
2021/10/13 11:31:57;;;;;;;3.60;2.25;;;;;;;;;;771187;182;915449;-63
2021/10/13 11:34:23;;;;;;;7.13;4.23;;;;;;;;;;767389;181;910563;-63
2021/10/13 11:36:49;;;;;;;7.20;3.30;;;;;;;;;;761524;182;915375;-63
2021/10/13 11:39:17;;;;;;;4.90;3.40;;;;;;;;;;762141;182;911750;-61
2021/10/13 11:41:42;;;;;;;5.30;2.10;;;;;;;;;;771497;182;911650;-61
2021/10/13 11:44:08;;;;;;;4.43;2.70;;;;;;;;;;762769;182;919604;-62
2021/10/13 11:46:34;;;;;;;8.90;5.25;;;;;;;;;;762656;180;919533;-61
2021/10/13 11:49:00;;;;;;;6.90;3.37;;;;;;;;;;767180;181;918604;-60
2021/10/13 11:51:26;;;;;;;6.60;3.33;;;;;;;;;;761355;182;918411;-61
2021/10/13 11:53:52;;;;;;;5.57;3.37;;;;;;;;;;760876;183;920687;-61
2021/10/13 11:56:19;;;;;;;4.33;2.80;;;;;;;;;;761684;182;918795;-61
2021/10/13 11:58:43;;;;;;;4.83;3.20;;;;;;;;;;765576;182;922348;-62
2021/10/13 12:01:09;;;;;;;6.73;3.63;;;;;;;;;;765952;181;939385;-61
2021/10/13 12:03:35;;;;;;;5.10;2.77;;;;;;;;;;763524;180;915959;-61
2021/10/13 12:06:01;;;;;;;6.00;4.70;;;;;;;;;;763080;182;915221;-62
2021/10/13 12:08:27;;;;;;;8.93;5.50;;;;;;;;;;764929;181;919780;-61
2021/10/13 12:10:52;;;;;;;5.95;5.12;;;;;;;;;;762185;182;919788;-62
2021/10/13 12:13:18;;;;;;;6.67;4.83;;;;;;;;;;767084;182;919469;-62
2021/10/13 12:15:44;;;;;;;6.27;4.87;;;;;;;;;;766324;182;918896;-61
2021/10/13 12:18:10;;;;;;;8.70;5.83;;;;;;;;;;760897;182;917696;-62
2021/10/13 12:20:36;;;;;;;7.80;4.57;;;;;;;;;;761330;182;919508;-66
2021/10/13 12:23:02;;;;;;;8.50;5.63;;;;;;;;;;772124;182;919042;-61
2021/10/13 12:25:29;;;;;;;11.90;8.40;;;;;;;;;;762742;182;919562;-61
2021/10/13 12:27:54;;;;;;;20.73;14.65;;;;;;;;;;760064;181;927395;-61
2021/10/13 12:30:36;;;;;;;20.10;13.53;;;;;;;;;;762949;181;919619;-62
2021/10/13 12:33:02;;;;;;;5.67;4.13;;;;;;;;;;766896;183;919181;-63
2021/10/13 12:35:29;;;;;;;5.47;3.63;;;;;;;;;;764445;182;917847;-61
2021/10/13 12:37:54;;;;;;;5.20;3.43;;;;;;;;;;764020;182;919440;-65
2021/10/13 12:40:20;;;;;;;4.57;3.00;;;;;;;;;;763099;182;918875;-62
2021/10/13 12:42:46;;;;;;;4.60;2.50;;;;;;;;;;761452;181;983456;-61
2021/10/13 12:45:12;;;;;;;4.45;3.35;;;;;;;;;;746643;186;918608;-61
2021/10/13 12:47:38;;;;;;;7.00;3.40;;;;;;;;;;762950;182;1020851;-62
2021/10/13 12:50:04;;;;;;;6.03;3.97;;;;;;;;;;762980;181;918969;-62
2021/10/13 12:52:30;;;;;;;4.10;3.07;;;;;;;;;;758904;182;924338;-62
2021/10/13 12:54:56;;;;;;;3.35;2.53;;;;;;;;;;765497;181;919634;-61
2021/10/13 12:57:21;;;;;;;4.87;3.40;;;;;;;;;;768422;182;918445;-63
2021/10/13 12:59:47;;;;;;;4.67;3.90;;;;;;;;;;765454;181;920116;-61
2021/10/13 13:02:13;;;;;;;5.77;4.07;;;;;;;;;;769039;181;903109;-62
2021/10/13 13:04:39;;;;;;;4.57;3.43;;;;;;;;;;771121;181;919487;-62
2021/10/13 13:07:05;;;;;;;4.67;3.70;;;;;;;;;;764407;181;920462;-62
2021/10/13 13:09:31;;;;;;;5.80;3.33;;;;;;;;;;767255;181;919921;-61
2021/10/13 13:11:57;;;;;;;7.22;5.53;;;;;;;;;;767866;181;918368;-65
2021/10/13 13:14:23;;;;;;;5.60;4.70;;;;;;;;;;764161;182;918616;-64
2021/10/13 13:16:48;;;;;;;5.50;4.37;;;;;;;;;;762887;182;919713;-63
2021/10/13 13:19:16;;;;;;;2.47;1.80;;;;;;;;;;767243;182;926154;-62
2021/10/13 13:21:40;;;;;;;3.67;2.90;;;;;;;;;;773219;182;918211;-63
2021/10/13 13:24:06;;;;;;;4.37;3.67;;;;;;;;;;764510;180;918904;-63
2021/10/13 13:26:32;;;;;;;4.60;2.78;;;;;;;;;;764628;181;917732;-64
2021/10/13 13:28:58;;;;;;;6.40;2.80;;;;;;;;;;765965;182;917829;-62
2021/10/13 13:31:23;;;;;;;4.30;2.90;;;;;;;;;;767364;182;919060;-62
2021/10/13 13:33:49;;;;;;;7.50;3.17;;;;;;;;;;764786;182;929710;-62
2021/10/13 13:36:16;;;;;;;5.13;3.53;;;;;;;;;;766456;182;918972;-62
2021/10/13 13:38:41;;;;;;;4.73;3.30;;;;;;;;;;761837;182;918487;-62
2021/10/13 13:41:07;;;;;;;4.10;2.87;;;;;;;;;;760241;181;919239;-62
2021/10/13 13:43:33;;;;;;;5.40;3.77;;;;;;;;;;760906;182;918526;-61
2021/10/13 13:45:58;;;;;;;10.77;6.20;;;;;;;;;;771723;182;918747;-61
2021/10/13 13:48:24;;;;;;;10.47;6.50;;;;;;;;;;766802;182;919535;-62
2021/10/13 13:50:50;;;;;;;8.05;6.12;;;;;;;;;;766066;181;919482;-61
2021/10/13 13:53:16;;;;;;;10.30;5.20;;;;;;;;;;769167;182;919592;-61
2021/10/13 13:55:42;;;;;;;4.77;3.40;;;;;;;;;;763977;181;918497;-62
2021/10/13 13:58:08;;;;;;;3.60;2.60;;;;;;;;;;766277;180;919052;-61
2021/10/13 14:00:33;;;;;;;5.80;3.20;;;;;;;;;;770031;181;920074;-62
2021/10/13 14:02:59;;;;;;;16.70;11.40;;;;;;;;;;763593;181;919465;-62
2021/10/13 14:05:25;;;;;;;16.37;11.37;;;;;;;;;;762719;181;919619;-62
2021/10/13 14:07:51;;;;;;;11.90;7.07;;;;;;;;;;763788;182;919290;-62
2021/10/13 14:10:17;;;;;;;4.60;2.53;;;;;;;;;;768343;180;917759;-62
2021/10/13 14:12:43;;;;;;;6.27;3.23;;;;;;;;;;768510;181;919560;-62
2021/10/13 14:15:09;;;;;;;4.27;2.20;;;;;;;;;;763491;181;919282;-62
2021/10/13 14:17:34;;;;;;;3.93;2.50;;;;;;;;;;765991;182;920294;-62